createdAt,value
2017-06-20T00:01:02.962Z,0
2017-06-20T00:02:12.913Z,0
2017-06-20T00:03:23.196Z,0
2017-06-20T00:04:33.468Z,0
2017-06-20T00:05:43.418Z,0
2017-06-20T00:06:53.697Z,0
2017-06-20T00:08:03.652Z,0
2017-06-20T00:09:13.922Z,0
2017-06-20T00:10:23.871Z,0
2017-06-20T00:11:33.506Z,0
2017-06-20T00:12:43.143Z,0
2017-06-20T00:13:53.095Z,0
2017-06-20T00:15:03.046Z,0
2017-06-20T00:16:12.678Z,0
2017-06-20T00:17:22.631Z,0
2017-06-20T00:18:32.900Z,0
2017-06-20T00:19:42.848Z,0
2017-06-20T00:20:53.122Z,0
2017-06-20T00:22:03.071Z,0
2017-06-20T00:23:12.395Z,0
2017-06-20T00:24:22.033Z,0
2017-06-20T00:25:31.981Z,0
2017-06-20T00:26:41.920Z,0
2017-06-20T00:27:51.872Z,0
2017-06-20T00:29:01.511Z,0
2017-06-20T00:30:11.778Z,0
2017-06-20T00:31:21.731Z,0
2017-06-20T00:32:31.718Z,0
2017-06-20T00:33:41.354Z,0
2017-06-20T00:34:51.622Z,0
2017-06-20T00:36:01.583Z,0
2017-06-20T00:37:11.861Z,0
2017-06-20T00:38:22.128Z,0
2017-06-20T00:39:32.386Z,0
2017-06-20T00:40:42.657Z,0
2017-06-20T00:41:52.924Z,0
2017-06-20T00:43:03.190Z,0
2017-06-20T00:44:13.455Z,0
2017-06-20T00:45:23.414Z,0
2017-06-20T00:46:33.678Z,0
2017-06-20T00:47:43.947Z,0
2017-06-20T00:48:53.586Z,0
2017-06-20T00:50:03.543Z,0
2017-06-20T00:51:13.809Z,0
2017-06-20T00:52:24.090Z,0
2017-06-20T00:53:34.045Z,0
2017-06-20T00:54:43.679Z,0
2017-06-20T00:55:53.953Z,0
2017-06-20T00:57:03.899Z,0
2017-06-20T00:58:13.530Z,0
2017-06-20T00:59:23.484Z,0
2017-06-20T01:00:33.438Z,0
2017-06-20T01:01:43.392Z,0
2017-06-20T01:02:53.664Z,0
2017-06-20T01:04:03.297Z,0
2017-06-20T01:05:13.560Z,0
2017-06-20T01:06:23.515Z,0
2017-06-20T01:07:33.468Z,0
2017-06-20T01:08:42.797Z,0
2017-06-20T01:09:53.065Z,0
2017-06-20T01:11:03.329Z,0
2017-06-20T01:12:13.278Z,0
2017-06-20T01:13:23.229Z,0
2017-06-20T01:14:32.870Z,0
2017-06-20T01:15:42.834Z,0
2017-06-20T01:16:53.109Z,0
2017-06-20T01:18:02.746Z,0
2017-06-20T01:19:13.007Z,0
2017-06-20T01:20:23.273Z,0
2017-06-20T01:21:33.543Z,0
2017-06-20T01:22:43.184Z,0
2017-06-20T01:23:53.136Z,0
2017-06-20T01:25:03.084Z,0
2017-06-20T01:26:13.044Z,0
2017-06-20T01:27:23.307Z,0
2017-06-20T01:28:33.573Z,0
2017-06-20T01:29:43.534Z,0
2017-06-20T01:30:53.486Z,0
2017-06-20T01:32:03.439Z,0
2017-06-20T01:33:13.390Z,0
2017-06-20T01:34:23.026Z,0
2017-06-20T01:35:33.289Z,0
2017-06-20T01:36:42.926Z,0
2017-06-20T01:37:52.876Z,0
2017-06-20T01:39:02.833Z,0
2017-06-20T01:40:13.103Z,0
2017-06-20T01:41:23.376Z,0
2017-06-20T01:42:33.330Z,0
2017-06-20T01:43:43.595Z,0
2017-06-20T01:44:53.861Z,0
2017-06-20T01:46:03.819Z,0
2017-06-20T01:47:13.772Z,0
2017-06-20T01:48:24.033Z,0
2017-06-20T01:49:34.296Z,0
2017-06-20T01:50:44.251Z,0
2017-06-20T01:51:54.520Z,0
2017-06-20T01:53:04.783Z,0
2017-06-20T01:54:15.054Z,0
2017-06-20T01:55:25.324Z,0
2017-06-20T01:56:35.277Z,0
2017-06-20T01:57:45.231Z,0
2017-06-20T01:58:55.184Z,0
2017-06-20T02:00:05.172Z,0
2017-06-20T02:01:15.443Z,0
2017-06-20T02:02:25.715Z,0
2017-06-20T02:03:35.663Z,0
2017-06-20T02:04:45.923Z,0
2017-06-20T02:05:55.902Z,0
2017-06-20T02:07:06.172Z,0
2017-06-20T02:08:16.135Z,0
2017-06-20T02:09:26.396Z,0
2017-06-20T02:10:36.347Z,0
2017-06-20T02:11:46.294Z,0
2017-06-20T02:12:56.237Z,0
2017-06-20T02:14:06.188Z,0
2017-06-20T02:15:16.137Z,0
2017-06-20T02:16:26.403Z,0
2017-06-20T02:17:36.357Z,0
2017-06-20T02:18:46.301Z,0
2017-06-20T02:19:55.623Z,0
2017-06-20T02:21:04.949Z,0
2017-06-20T02:22:15.216Z,0
2017-06-20T02:23:24.862Z,0
2017-06-20T02:24:34.494Z,0
2017-06-20T02:25:44.764Z,0
2017-06-20T02:26:55.034Z,0
2017-06-20T02:28:04.990Z,0
2017-06-20T02:29:14.944Z,0
2017-06-20T02:30:25.207Z,0
2017-06-20T02:31:35.150Z,0
2017-06-20T02:32:45.418Z,0
2017-06-20T02:33:55.368Z,0
2017-06-20T02:35:05.635Z,0
2017-06-20T02:36:15.584Z,0
2017-06-20T02:37:25.540Z,0
2017-06-20T02:38:35.800Z,0
2017-06-20T02:39:45.121Z,0
2017-06-20T02:40:55.389Z,0
2017-06-20T02:42:05.025Z,0
2017-06-20T02:43:14.984Z,0
2017-06-20T02:44:25.252Z,0
2017-06-20T02:45:35.193Z,0
2017-06-20T02:46:45.462Z,0
2017-06-20T02:47:55.411Z,0
2017-06-20T02:49:05.362Z,0
2017-06-20T02:50:15.312Z,0
2017-06-20T02:51:25.586Z,0
2017-06-20T02:52:35.540Z,0
2017-06-20T02:53:45.809Z,0
2017-06-20T02:54:55.761Z,0
2017-06-20T02:56:05.716Z,0
2017-06-20T02:57:15.981Z,0
2017-06-20T02:58:26.247Z,0
2017-06-20T02:59:35.882Z,0
2017-06-20T03:00:45.520Z,0
2017-06-20T03:01:55.473Z,0
2017-06-20T03:03:05.742Z,0
2017-06-20T03:04:15.384Z,0
2017-06-20T03:05:25.336Z,0
2017-06-20T03:06:34.968Z,0
2017-06-20T03:07:45.229Z,0
2017-06-20T03:08:55.496Z,0
2017-06-20T03:10:05.755Z,0
2017-06-20T03:11:15.707Z,0
2017-06-20T03:12:25.971Z,0
2017-06-20T03:13:36.233Z,0
2017-06-20T03:14:46.222Z,0
2017-06-20T03:15:56.173Z,0
2017-06-20T03:17:06.126Z,4
2017-06-20T03:18:15.759Z,4
2017-06-20T03:19:26.023Z,4
2017-06-20T03:20:35.974Z,4
2017-06-20T03:21:45.616Z,4
2017-06-20T03:22:55.886Z,4
2017-06-20T03:24:06.152Z,4
2017-06-20T03:25:16.419Z,4
2017-06-20T03:26:26.721Z,4
2017-06-20T03:27:36.981Z,4
2017-06-20T03:28:46.934Z,4
2017-06-20T03:29:57.207Z,0
2017-06-20T03:31:07.165Z,4
2017-06-20T03:32:17.442Z,0
2017-06-20T03:33:27.390Z,0
2017-06-20T03:34:37.343Z,0
2017-06-20T03:35:47.300Z,0
2017-06-20T03:36:57.252Z,0
2017-06-20T03:38:07.511Z,0
2017-06-20T03:39:17.149Z,0
2017-06-20T03:40:27.105Z,0
2017-06-20T03:41:37.402Z,0
2017-06-20T03:42:47.359Z,0
2017-06-20T03:43:57.630Z,0
2017-06-20T03:45:07.593Z,0
2017-06-20T03:46:17.876Z,0
2017-06-20T03:47:27.829Z,0
2017-06-20T03:48:38.097Z,4
2017-06-20T03:49:48.365Z,4
2017-06-20T03:50:58.316Z,4
2017-06-20T03:52:08.270Z,4
2017-06-20T03:53:18.224Z,4
2017-06-20T03:54:28.488Z,4
2017-06-20T03:55:38.125Z,4
2017-06-20T03:56:48.390Z,4
2017-06-20T03:57:58.652Z,4
2017-06-20T03:59:08.915Z,4
2017-06-20T04:00:18.549Z,4
2017-06-20T04:01:28.819Z,4
2017-06-20T04:02:39.084Z,4
2017-06-20T04:03:49.348Z,4
2017-06-20T04:04:59.620Z,4
2017-06-20T04:06:09.254Z,4
2017-06-20T04:07:19.516Z,4
2017-06-20T04:08:29.785Z,0
2017-06-20T04:09:39.739Z,0
2017-06-20T04:10:49.697Z,0
2017-06-20T04:11:59.967Z,4
2017-06-20T04:13:09.601Z,4
2017-06-20T04:14:19.869Z,4
2017-06-20T04:15:30.130Z,4
2017-06-20T04:16:40.397Z,4
2017-06-20T04:17:50.034Z,4
2017-06-20T04:18:59.673Z,4
2017-06-20T04:20:09.942Z,4
2017-06-20T04:21:20.212Z,4
2017-06-20T04:22:30.162Z,4
2017-06-20T04:23:40.430Z,4
2017-06-20T04:24:50.377Z,4
2017-06-20T04:26:00.332Z,4
2017-06-20T04:27:10.598Z,4
2017-06-20T04:28:20.856Z,4
2017-06-20T04:29:31.119Z,4
2017-06-20T04:30:41.070Z,4
2017-06-20T04:31:50.709Z,8
2017-06-20T04:33:00.668Z,4
2017-06-20T04:34:10.621Z,4
2017-06-20T04:35:20.587Z,4
2017-06-20T04:36:30.532Z,4
2017-06-20T04:37:40.491Z,4
2017-06-20T04:38:50.438Z,4
2017-06-20T04:40:00.697Z,8
2017-06-20T04:41:10.336Z,8
2017-06-20T04:42:19.970Z,4
2017-06-20T04:43:30.235Z,4
2017-06-20T04:44:40.182Z,4
2017-06-20T04:45:50.444Z,4
2017-06-20T04:47:00.715Z,8
2017-06-20T04:48:10.355Z,4
2017-06-20T04:49:19.987Z,8
2017-06-20T04:50:29.936Z,8
2017-06-20T04:51:40.202Z,4
2017-06-20T04:52:50.151Z,8
2017-06-20T04:54:00.419Z,8
2017-06-20T04:55:10.372Z,8
2017-06-20T04:56:20.635Z,4
2017-06-20T04:57:30.588Z,4
2017-06-20T04:58:40.540Z,8
2017-06-20T04:59:49.860Z,8
2017-06-20T05:00:59.817Z,8
2017-06-20T05:02:10.083Z,8
2017-06-20T05:03:20.036Z,8
2017-06-20T05:04:29.671Z,4
2017-06-20T05:05:39.626Z,4
2017-06-20T05:06:49.580Z,4
2017-06-20T05:07:59.859Z,8
2017-06-20T05:09:10.118Z,8
2017-06-20T05:10:19.756Z,8
2017-06-20T05:11:30.018Z,8
2017-06-20T05:12:39.968Z,8
2017-06-20T05:13:50.237Z,8
2017-06-20T05:14:59.876Z,4
2017-06-20T05:16:10.152Z,8
2017-06-20T05:17:20.434Z,8
2017-06-20T05:18:30.708Z,8
2017-06-20T05:19:40.660Z,8
2017-06-20T05:20:50.299Z,8
2017-06-20T05:21:59.939Z,8
2017-06-20T05:23:10.203Z,8
2017-06-20T05:24:19.842Z,8
2017-06-20T05:25:29.790Z,8
2017-06-20T05:26:40.060Z,12
2017-06-20T05:27:50.011Z,8
2017-06-20T05:28:59.965Z,12
2017-06-20T05:30:10.230Z,12
2017-06-20T05:31:20.179Z,12
2017-06-20T05:32:30.450Z,12
2017-06-20T05:33:40.720Z,12
2017-06-20T05:34:50.360Z,12
2017-06-20T05:36:00.321Z,12
2017-06-20T05:37:10.270Z,12
2017-06-20T05:38:20.222Z,12
2017-06-20T05:39:30.175Z,12
2017-06-20T05:40:40.437Z,12
2017-06-20T05:41:50.704Z,12
2017-06-20T05:43:00.664Z,12
2017-06-20T05:44:10.615Z,12
2017-06-20T05:45:20.880Z,12
2017-06-20T05:46:30.840Z,12
2017-06-20T05:47:41.100Z,12
2017-06-20T05:48:51.363Z,12
2017-06-20T05:50:01.628Z,12
2017-06-20T05:51:11.895Z,12
2017-06-20T05:52:22.161Z,8
2017-06-20T05:53:32.117Z,8
2017-06-20T05:54:42.070Z,12
2017-06-20T05:55:52.342Z,8
2017-06-20T05:57:02.609Z,8
2017-06-20T05:58:12.561Z,12
2017-06-20T05:59:22.821Z,12
2017-06-20T06:00:32.778Z,16
2017-06-20T06:01:43.046Z,20
2017-06-20T06:02:53.305Z,20
2017-06-20T06:04:03.258Z,24
2017-06-20T06:05:13.535Z,24
2017-06-20T06:06:23.490Z,28
2017-06-20T06:07:33.122Z,32
2017-06-20T06:08:43.074Z,44
2017-06-20T06:09:53.027Z,48
2017-06-20T06:11:03.290Z,48
2017-06-20T06:12:12.928Z,52
2017-06-20T06:13:22.577Z,56
2017-06-20T06:14:32.843Z,60
2017-06-20T06:15:43.098Z,60
2017-06-20T06:16:53.368Z,52
2017-06-20T06:18:03.640Z,60
2017-06-20T06:19:13.587Z,56
2017-06-20T06:20:23.847Z,60
2017-06-20T06:21:33.529Z,52
2017-06-20T06:22:43.721Z,56
2017-06-20T06:23:54.118Z,52
2017-06-20T06:25:04.398Z,52
2017-06-20T06:26:14.039Z,60
2017-06-20T06:27:24.304Z,64
2017-06-20T06:28:32.994Z,72
2017-06-20T06:29:43.259Z,72
2017-06-20T06:30:53.214Z,72
2017-06-20T06:32:03.480Z,72
2017-06-20T06:33:13.120Z,80
2017-06-20T06:34:23.386Z,76
2017-06-20T06:35:33.651Z,72
2017-06-20T06:36:43.281Z,72
2017-06-20T06:37:53.233Z,64
2017-06-20T06:39:03.181Z,76
2017-06-20T06:40:13.125Z,72
2017-06-20T06:41:23.389Z,72
2017-06-20T06:42:33.658Z,72
2017-06-20T06:43:43.616Z,72
2017-06-20T06:44:53.571Z,76
2017-06-20T06:46:03.524Z,76
2017-06-20T06:47:13.480Z,76
2017-06-20T06:48:23.746Z,80
2017-06-20T06:49:34.011Z,80
2017-06-20T06:50:43.652Z,76
2017-06-20T06:51:53.603Z,68
2017-06-20T06:53:03.572Z,80
2017-06-20T06:54:13.212Z,72
2017-06-20T06:55:23.175Z,72
2017-06-20T06:56:33.129Z,64
2017-06-20T06:57:43.087Z,68
2017-06-20T06:58:53.045Z,76
2017-06-20T07:00:03.329Z,72
2017-06-20T07:01:13.291Z,72
2017-06-20T07:02:23.250Z,72
2017-06-20T07:03:32.893Z,72
2017-06-20T07:04:43.162Z,56
2017-06-20T07:05:53.422Z,60
2017-06-20T07:07:03.408Z,80
2017-06-20T07:08:13.052Z,72
2017-06-20T07:09:23.324Z,68
2017-06-20T07:10:33.285Z,64
2017-06-20T07:11:43.566Z,76
2017-06-20T07:12:53.834Z,64
2017-06-20T07:14:03.784Z,60
2017-06-20T07:15:14.055Z,64
2017-06-20T07:16:24.012Z,56
2017-06-20T07:17:33.649Z,60
2017-06-20T07:18:43.603Z,64
2017-06-20T07:19:53.879Z,72
2017-06-20T07:21:03.833Z,72
2017-06-20T07:22:14.117Z,72
2017-06-20T07:23:24.078Z,72
2017-06-20T07:24:33.720Z,72
2017-06-20T07:25:43.987Z,72
2017-06-20T07:26:53.312Z,72
2017-06-20T07:28:03.268Z,68
2017-06-20T07:29:13.217Z,72
2017-06-20T07:30:23.526Z,68
2017-06-20T07:31:33.493Z,64
2017-06-20T07:32:43.759Z,64
2017-06-20T07:33:53.714Z,48
2017-06-20T07:35:03.666Z,48
2017-06-20T07:36:13.928Z,60
2017-06-20T07:37:24.197Z,60
2017-06-20T07:38:33.837Z,68
2017-06-20T07:39:44.109Z,64
2017-06-20T07:40:54.061Z,60
2017-06-20T07:42:04.332Z,64
2017-06-20T07:43:14.597Z,60
2017-06-20T07:44:24.558Z,64
2017-06-20T07:45:34.818Z,64
2017-06-20T07:46:45.081Z,60
2017-06-20T07:47:55.354Z,60
2017-06-20T07:49:04.675Z,60
2017-06-20T07:50:14.312Z,60
2017-06-20T07:51:24.578Z,64
2017-06-20T07:52:34.223Z,60
2017-06-20T07:53:44.180Z,60
2017-06-20T07:54:54.438Z,56
2017-06-20T07:56:04.708Z,56
2017-06-20T07:57:14.971Z,52
2017-06-20T07:58:24.290Z,40
2017-06-20T07:59:34.550Z,40
2017-06-20T08:00:44.505Z,40
2017-06-20T08:01:54.472Z,40
2017-06-20T08:03:04.137Z,44
2017-06-20T08:04:13.772Z,48
2017-06-20T08:05:23.414Z,44
2017-06-20T08:06:33.364Z,44
2017-06-20T08:07:43.311Z,40
2017-06-20T08:08:52.949Z,36
2017-06-20T08:10:02.911Z,36
2017-06-20T08:11:12.859Z,32
2017-06-20T08:12:22.802Z,36
2017-06-20T08:13:32.755Z,36
2017-06-20T08:14:42.705Z,36
2017-06-20T08:15:52.976Z,36
2017-06-20T08:17:02.927Z,36
2017-06-20T08:18:13.204Z,32
2017-06-20T08:19:23.468Z,36
2017-06-20T08:20:33.734Z,36
2017-06-20T08:21:43.692Z,32
2017-06-20T08:22:53.666Z,32
2017-06-20T08:24:03.313Z,32
2017-06-20T08:25:13.574Z,32
2017-06-20T08:26:23.836Z,32
2017-06-20T08:27:33.794Z,28
2017-06-20T08:28:43.752Z,32
2017-06-20T08:29:53.723Z,28
2017-06-20T08:31:03.993Z,24
2017-06-20T08:32:14.307Z,28
2017-06-20T08:33:23.942Z,24
2017-06-20T08:34:34.213Z,24
2017-06-20T08:35:44.488Z,24
2017-06-20T08:36:54.139Z,24
2017-06-20T08:38:03.785Z,24
2017-06-20T08:39:14.052Z,20
2017-06-20T08:40:24.017Z,24
2017-06-20T08:41:33.973Z,20
2017-06-20T08:42:43.615Z,16
2017-06-20T08:43:53.886Z,20
2017-06-20T08:45:03.530Z,8
2017-06-20T08:46:13.185Z,16
2017-06-20T08:47:22.193Z,20
2017-06-20T08:48:32.149Z,16
2017-06-20T08:49:42.107Z,8
2017-06-20T08:50:51.762Z,16
2017-06-20T08:52:01.724Z,8
2017-06-20T08:53:11.362Z,16
2017-06-20T08:54:21.313Z,8
2017-06-20T08:55:30.635Z,8
2017-06-20T08:56:40.593Z,16
2017-06-20T08:57:50.538Z,16
2017-06-20T08:59:00.179Z,16
2017-06-20T09:00:10.137Z,12
2017-06-20T09:01:19.773Z,4
2017-06-20T09:02:29.734Z,8
2017-06-20T09:03:39.999Z,16
2017-06-20T09:04:49.953Z,16
2017-06-20T09:06:00.218Z,12
2017-06-20T09:07:10.487Z,16
2017-06-20T09:08:20.439Z,12
2017-06-20T09:09:30.388Z,16
2017-06-20T09:10:40.028Z,16
2017-06-20T09:11:49.979Z,16
2017-06-20T09:12:59.939Z,16
2017-06-20T09:14:09.895Z,12
2017-06-20T09:15:20.166Z,12
2017-06-20T09:16:30.127Z,12
2017-06-20T09:17:40.401Z,8
2017-06-20T09:18:50.042Z,16
2017-06-20T09:20:00.000Z,16
2017-06-20T09:21:10.281Z,16
2017-06-20T09:22:20.234Z,12
2017-06-20T09:23:29.870Z,16
2017-06-20T09:24:39.818Z,16
2017-06-20T09:25:49.152Z,12
2017-06-20T09:26:59.100Z,12
2017-06-20T09:28:09.373Z,12
2017-06-20T09:29:19.328Z,16
2017-06-20T09:30:28.971Z,8
2017-06-20T09:31:39.239Z,8
2017-06-20T09:32:48.565Z,8
2017-06-20T09:33:58.202Z,8
2017-06-20T09:35:08.168Z,8
2017-06-20T09:36:17.516Z,8
2017-06-20T09:37:26.843Z,8
2017-06-20T09:38:36.479Z,8
2017-06-20T09:39:46.434Z,8
2017-06-20T09:40:56.722Z,8
2017-06-20T09:42:06.366Z,8
2017-06-20T09:43:16.009Z,12
2017-06-20T09:44:25.961Z,12
2017-06-20T09:45:35.281Z,12
2017-06-20T09:46:45.237Z,12
2017-06-20T09:47:54.875Z,12
2017-06-20T09:49:04.520Z,12
2017-06-20T09:50:14.479Z,8
2017-06-20T09:51:23.483Z,4
2017-06-20T09:52:33.164Z,8
2017-06-20T09:53:43.114Z,12
2017-06-20T09:54:53.382Z,12
2017-06-20T09:56:03.336Z,12
2017-06-20T09:57:13.288Z,12
2017-06-20T09:58:23.555Z,12
2017-06-20T09:59:33.185Z,12
2017-06-20T10:00:43.135Z,12
2017-06-20T10:01:53.082Z,12
2017-06-20T10:03:03.031Z,12
2017-06-20T10:04:13.136Z,12
2017-06-20T10:05:23.410Z,8
2017-06-20T10:06:33.362Z,8
2017-06-20T10:07:43.311Z,8
2017-06-20T10:08:53.584Z,8
2017-06-20T10:10:03.532Z,8
2017-06-20T10:11:13.800Z,4
2017-06-20T10:12:24.075Z,12
2017-06-20T10:13:34.340Z,8
2017-06-20T10:14:44.297Z,8
2017-06-20T10:15:54.719Z,12
2017-06-20T10:17:04.676Z,12
2017-06-20T10:18:14.948Z,12
2017-06-20T10:19:24.899Z,8
2017-06-20T10:20:34.853Z,8
2017-06-20T10:21:44.490Z,8
2017-06-20T10:22:54.754Z,8
2017-06-20T10:24:04.395Z,8
2017-06-20T10:25:14.672Z,4
2017-06-20T10:26:24.318Z,4
2017-06-20T10:27:34.601Z,4
2017-06-20T10:28:44.891Z,4
2017-06-20T10:29:55.159Z,4
2017-06-20T10:31:05.427Z,4
2017-06-20T10:32:15.388Z,4
2017-06-20T10:33:25.177Z,8
2017-06-20T10:34:35.139Z,8
2017-06-20T10:35:45.410Z,12
2017-06-20T10:36:55.361Z,12
2017-06-20T10:38:05.634Z,12
2017-06-20T10:39:15.904Z,8
2017-06-20T10:40:26.169Z,4
2017-06-20T10:41:36.452Z,12
2017-06-20T10:42:46.718Z,8
2017-06-20T10:43:56.981Z,4
2017-06-20T10:45:07.258Z,8
2017-06-20T10:46:16.891Z,8
2017-06-20T10:47:26.531Z,4
2017-06-20T10:48:36.811Z,4
2017-06-20T10:49:47.084Z,8
2017-06-20T10:50:57.360Z,4
2017-06-20T10:52:07.630Z,4
2017-06-20T10:53:17.902Z,4
2017-06-20T10:54:28.175Z,4
2017-06-20T10:55:38.446Z,8
2017-06-20T10:56:48.402Z,8
2017-06-20T10:57:58.354Z,8
2017-06-20T10:59:08.623Z,8
2017-06-20T11:00:18.890Z,8
2017-06-20T11:01:28.214Z,8
2017-06-20T11:02:38.169Z,8
2017-06-20T11:03:48.118Z,8
2017-06-20T11:04:57.755Z,8
2017-06-20T11:06:07.392Z,8
2017-06-20T11:07:17.348Z,8
2017-06-20T11:08:27.304Z,4
2017-06-20T11:09:36.940Z,4
2017-06-20T11:10:46.906Z,8
2017-06-20T11:11:57.173Z,4
2017-06-20T11:13:07.129Z,4
2017-06-20T11:14:17.087Z,8
2017-06-20T11:15:27.351Z,8
2017-06-20T11:16:37.312Z,4
2017-06-20T11:17:47.588Z,8
2017-06-20T11:18:56.949Z,8
2017-06-20T11:20:07.257Z,4
2017-06-20T11:21:16.902Z,4
2017-06-20T11:22:27.170Z,4
2017-06-20T11:23:36.807Z,4
2017-06-20T11:24:46.762Z,8
2017-06-20T11:25:57.035Z,8
2017-06-20T11:27:07.335Z,4
2017-06-20T11:28:16.973Z,4
2017-06-20T11:29:26.925Z,4
2017-06-20T11:30:36.560Z,8
2017-06-20T11:31:46.515Z,8
2017-06-20T11:32:56.471Z,4
2017-06-20T11:34:06.735Z,8
2017-06-20T11:35:17.002Z,8
2017-06-20T11:36:26.951Z,8
2017-06-20T11:37:36.287Z,4
2017-06-20T11:38:46.551Z,4
2017-06-20T11:39:56.187Z,8
2017-06-20T11:41:06.454Z,4
2017-06-20T11:42:16.094Z,4
2017-06-20T11:43:26.372Z,4
2017-06-20T11:44:36.643Z,4
2017-06-20T11:45:46.596Z,8
2017-06-20T11:46:56.862Z,4
2017-06-20T11:48:07.136Z,4
2017-06-20T11:49:17.087Z,8
2017-06-20T11:50:27.039Z,4
2017-06-20T11:51:37.000Z,4
2017-06-20T11:52:47.266Z,8
2017-06-20T11:53:56.904Z,8
2017-06-20T11:55:06.541Z,8
2017-06-20T11:56:16.806Z,8
2017-06-20T11:57:27.081Z,8
2017-06-20T11:58:36.730Z,8
2017-06-20T11:59:47.003Z,8
2017-06-20T12:00:56.968Z,8
2017-06-20T12:02:06.929Z,8
2017-06-20T12:03:16.888Z,4
2017-06-20T12:04:26.527Z,8
2017-06-20T12:05:36.484Z,8
2017-06-20T12:06:46.749Z,8
2017-06-20T12:07:56.386Z,4
2017-06-20T12:09:06.654Z,4
2017-06-20T12:10:16.619Z,4
2017-06-20T12:11:26.893Z,8
2017-06-20T12:12:36.847Z,8
2017-06-20T12:13:46.802Z,4
2017-06-20T12:14:56.128Z,8
2017-06-20T12:16:06.400Z,8
2017-06-20T12:17:16.354Z,8
2017-06-20T12:18:26.305Z,8
2017-06-20T12:19:36.260Z,8
2017-06-20T12:20:45.902Z,8
2017-06-20T12:21:55.864Z,8
2017-06-20T12:23:06.142Z,8
2017-06-20T12:24:16.406Z,4
2017-06-20T12:25:26.361Z,8
2017-06-20T12:26:36.629Z,8
2017-06-20T12:27:46.900Z,4
2017-06-20T12:28:56.543Z,8
2017-06-20T12:30:06.810Z,8
2017-06-20T12:31:17.085Z,8
2017-06-20T12:32:27.363Z,8
2017-06-20T12:33:37.675Z,4
2017-06-20T12:34:47.950Z,4
2017-06-20T12:35:58.223Z,4
2017-06-20T12:37:08.201Z,4
2017-06-20T12:38:18.477Z,4
2017-06-20T12:39:28.116Z,8
2017-06-20T12:40:38.072Z,8
2017-06-20T12:41:48.349Z,4
2017-06-20T12:42:57.991Z,8
2017-06-20T12:44:08.304Z,4
2017-06-20T12:45:18.574Z,8
2017-06-20T12:46:28.838Z,4
2017-06-20T12:47:38.789Z,4
2017-06-20T12:48:48.750Z,4
2017-06-20T12:49:58.700Z,8
2017-06-20T12:51:08.335Z,4
2017-06-20T12:52:18.294Z,8
2017-06-20T12:53:27.930Z,4
2017-06-20T12:54:37.880Z,4
2017-06-20T12:55:47.833Z,4
2017-06-20T12:56:57.792Z,8
2017-06-20T12:58:07.435Z,8
2017-06-20T12:59:17.708Z,8
2017-06-20T13:00:27.983Z,8
2017-06-20T13:01:38.256Z,8
2017-06-20T13:02:48.205Z,8
2017-06-20T13:03:58.159Z,8
2017-06-20T13:05:08.114Z,8
2017-06-20T13:06:18.383Z,4
2017-06-20T13:07:28.336Z,8
2017-06-20T13:08:38.608Z,8
2017-06-20T13:09:48.873Z,8
2017-06-20T13:10:59.141Z,8
2017-06-20T13:12:09.413Z,8
2017-06-20T13:13:19.368Z,8
2017-06-20T13:14:29.322Z,12
2017-06-20T13:15:39.587Z,8
2017-06-20T13:16:49.540Z,8
2017-06-20T13:17:59.811Z,8
2017-06-20T13:19:09.136Z,8
2017-06-20T13:20:18.777Z,8
2017-06-20T13:21:29.050Z,8
2017-06-20T13:22:38.682Z,8
2017-06-20T13:23:48.956Z,8
2017-06-20T13:24:59.245Z,4
2017-06-20T13:26:09.517Z,4
2017-06-20T13:27:19.781Z,8
2017-06-20T13:28:29.424Z,8
2017-06-20T13:29:39.378Z,8
2017-06-20T13:30:49.012Z,8
2017-06-20T13:31:58.340Z,8
2017-06-20T13:33:08.302Z,8
2017-06-20T13:34:17.626Z,8
2017-06-20T13:35:27.893Z,8
2017-06-20T13:36:37.528Z,4
2017-06-20T13:37:47.176Z,8
2017-06-20T13:38:57.453Z,8
2017-06-20T13:40:07.406Z,8
2017-06-20T13:41:17.363Z,8
2017-06-20T13:42:27.323Z,8
2017-06-20T13:43:37.644Z,8
2017-06-20T13:44:46.970Z,8
2017-06-20T13:45:56.925Z,8
2017-06-20T13:47:06.913Z,8
2017-06-20T13:48:17.184Z,8
2017-06-20T13:49:27.451Z,8
2017-06-20T13:50:37.732Z,8
2017-06-20T13:51:48.001Z,8
2017-06-20T13:52:57.960Z,4
2017-06-20T13:54:07.923Z,8
2017-06-20T13:55:17.880Z,4
2017-06-20T13:56:27.838Z,8
2017-06-20T13:57:37.879Z,8
2017-06-20T13:58:47.835Z,8
2017-06-20T13:59:58.099Z,8
2017-06-20T14:01:07.741Z,8
2017-06-20T14:02:17.697Z,8
2017-06-20T14:03:27.966Z,8
2017-06-20T14:04:37.297Z,8
2017-06-20T14:05:47.250Z,12
2017-06-20T14:06:56.887Z,12
2017-06-20T14:08:07.151Z,8
2017-06-20T14:09:16.791Z,8
2017-06-20T14:10:26.747Z,8
2017-06-20T14:11:37.013Z,12
2017-06-20T14:12:47.280Z,12
2017-06-20T14:13:57.557Z,12
2017-06-20T14:15:07.512Z,8
2017-06-20T14:16:17.467Z,12
2017-06-20T14:17:27.739Z,12
2017-06-20T14:18:38.005Z,12
2017-06-20T14:19:48.273Z,4
2017-06-20T14:20:57.912Z,4
2017-06-20T14:22:08.185Z,4
2017-06-20T14:23:18.452Z,12
2017-06-20T14:24:28.717Z,8
2017-06-20T14:25:39.001Z,8
2017-06-20T14:26:48.953Z,8
2017-06-20T14:27:58.909Z,12
2017-06-20T14:29:09.177Z,12
2017-06-20T14:30:18.821Z,12
2017-06-20T14:31:28.456Z,12
2017-06-20T14:32:38.092Z,12
2017-06-20T14:33:48.360Z,12
2017-06-20T14:34:58.631Z,4
2017-06-20T14:36:08.581Z,8
2017-06-20T14:37:18.846Z,12
2017-06-20T14:38:29.133Z,12
2017-06-20T14:39:39.656Z,12
2017-06-20T14:40:49.610Z,4
2017-06-20T14:41:59.877Z,12
2017-06-20T14:43:09.208Z,8
2017-06-20T14:44:19.158Z,8
2017-06-20T14:45:28.167Z,12
2017-06-20T14:46:38.154Z,12
2017-06-20T14:47:48.429Z,8
2017-06-20T14:48:58.689Z,8
2017-06-20T14:50:08.959Z,4
2017-06-20T14:51:18.282Z,8
2017-06-20T14:52:27.951Z,12
2017-06-20T14:53:37.934Z,12
2017-06-20T14:54:47.575Z,12
2017-06-20T14:55:57.215Z,12
2017-06-20T14:57:07.481Z,4
2017-06-20T14:58:16.804Z,12
2017-06-20T14:59:26.440Z,12
2017-06-20T15:00:36.147Z,8
2017-06-20T15:01:46.096Z,8
2017-06-20T15:02:56.046Z,12
2017-06-20T15:04:06.319Z,8
2017-06-20T15:05:16.588Z,8
2017-06-20T15:06:26.230Z,8
2017-06-20T15:07:36.506Z,8
2017-06-20T15:08:46.779Z,8
2017-06-20T15:09:57.040Z,12
2017-06-20T15:11:06.992Z,8
2017-06-20T15:12:16.945Z,8
2017-06-20T15:13:27.207Z,12
2017-06-20T15:14:37.482Z,8
2017-06-20T15:15:47.758Z,8
2017-06-20T15:16:58.029Z,8
2017-06-20T15:18:07.984Z,4
2017-06-20T15:19:17.943Z,8
2017-06-20T15:20:27.894Z,8
2017-06-20T15:21:37.861Z,4
2017-06-20T15:22:47.820Z,8
2017-06-20T15:23:57.455Z,8
2017-06-20T15:25:07.407Z,12
2017-06-20T15:26:17.041Z,4
2017-06-20T15:27:26.999Z,8
2017-06-20T15:28:37.309Z,8
2017-06-20T15:29:47.263Z,8
2017-06-20T15:30:57.532Z,12
2017-06-20T15:32:07.490Z,8
2017-06-20T15:33:17.442Z,12
2017-06-20T15:34:27.078Z,12
2017-06-20T15:35:37.350Z,12
2017-06-20T15:36:47.624Z,12
2017-06-20T15:37:57.581Z,8
2017-06-20T15:39:07.844Z,8
2017-06-20T15:40:18.112Z,8
2017-06-20T15:41:28.063Z,8
2017-06-20T15:42:37.706Z,8
2017-06-20T15:43:47.968Z,8
2017-06-20T15:44:58.236Z,8
2017-06-20T15:46:08.505Z,12
2017-06-20T15:47:18.454Z,12
2017-06-20T15:48:28.722Z,12
2017-06-20T15:49:38.671Z,12
2017-06-20T15:50:48.311Z,12
2017-06-20T15:51:58.267Z,8
2017-06-20T15:53:08.217Z,8
2017-06-20T15:54:18.486Z,8
2017-06-20T15:55:28.758Z,12
2017-06-20T15:56:38.713Z,8
2017-06-20T15:57:48.665Z,8
2017-06-20T15:58:58.933Z,8
2017-06-20T16:00:09.230Z,8
2017-06-20T16:01:19.496Z,8
2017-06-20T16:02:29.448Z,8
2017-06-20T16:03:39.400Z,8
2017-06-20T16:04:49.671Z,8
2017-06-20T16:05:59.937Z,8
2017-06-20T16:07:09.892Z,8
2017-06-20T16:08:19.846Z,4
2017-06-20T16:09:29.795Z,8
2017-06-20T16:10:39.749Z,8
2017-06-20T16:11:50.013Z,4
2017-06-20T16:13:00.285Z,4
2017-06-20T16:14:10.551Z,8
2017-06-20T16:15:20.816Z,4
2017-06-20T16:16:30.771Z,8
2017-06-20T16:17:40.745Z,4
2017-06-20T16:18:50.695Z,8
2017-06-20T16:20:00.960Z,4
2017-06-20T16:21:10.283Z,4
2017-06-20T16:22:20.551Z,4
2017-06-20T16:23:30.821Z,8
2017-06-20T16:24:40.776Z,8
2017-06-20T16:25:51.047Z,4
2017-06-20T16:27:00.691Z,4
2017-06-20T16:28:10.645Z,8
2017-06-20T16:29:20.956Z,8
2017-06-20T16:30:31.230Z,8
2017-06-20T16:31:41.187Z,8
2017-06-20T16:32:51.452Z,8
2017-06-20T16:34:01.402Z,4
2017-06-20T16:35:11.043Z,8
2017-06-20T16:36:21.312Z,8
2017-06-20T16:37:31.261Z,8
2017-06-20T16:38:41.527Z,4
2017-06-20T16:39:51.797Z,4
2017-06-20T16:41:02.060Z,8
2017-06-20T16:42:12.332Z,8
2017-06-20T16:43:22.286Z,8
2017-06-20T16:44:32.552Z,4
2017-06-20T16:45:42.509Z,4
2017-06-20T16:46:52.466Z,4
2017-06-20T16:48:02.412Z,4
2017-06-20T16:49:12.683Z,4
2017-06-20T16:50:22.002Z,4
2017-06-20T16:51:31.646Z,4
2017-06-20T16:52:41.601Z,4
2017-06-20T16:53:51.870Z,4
2017-06-20T16:55:01.823Z,8
2017-06-20T16:56:11.771Z,4
2017-06-20T16:57:21.415Z,4
2017-06-20T16:58:31.681Z,8
2017-06-20T16:59:41.943Z,4
2017-06-20T17:00:52.211Z,4
2017-06-20T17:02:02.168Z,4
2017-06-20T17:03:12.435Z,4
2017-06-20T17:04:22.701Z,4